Terminal Aerodrome Forecast
Issued by NWS Cleveland, OH

Home | Current Version | Previous Version | Text Only | Print | Product List | Glossary On
Versions: 1 2 3 4 5 6 7 8 9 10 11 12 13 14 15
000
FTUS41 KCLE 302339
TAFMFD
TAF
KMFD 302339Z 3100/3124 24007KT P6SM VCTS SCT050CB BKN080
      TEMPO 3100/3101 28006KT 5SM -SHRA BKN045 OVC070
     FM310200 21004KT P6SM SCT080 BKN200
     FM311000 21004KT 5SM BR SKC
     FM311300 23005KT P6SM SCT030
     FM311700 25008KT P6SM BKN045=

USA.gov is the U.S. government's official web portal to all federal, state and local government web resources and services.